createdAt,value
2023-03-27T00:00:29.353Z,5.90
2023-03-27T00:03:32.555Z,5.90
2023-03-27T00:06:34.439Z,5.90
2023-03-27T00:09:37.087Z,5.90
2023-03-27T00:12:39.144Z,5.80
2023-03-27T00:15:40.890Z,5.80
2023-03-27T00:18:42.567Z,5.80
2023-03-27T00:21:44.980Z,5.80
2023-03-27T00:24:46.605Z,5.70
2023-03-27T00:27:48.819Z,5.60
2023-03-27T00:30:50.775Z,5.50
2023-03-27T00:33:52.432Z,5.40
2023-03-27T00:36:54.035Z,5.40
2023-03-27T00:39:56.364Z,5.20
2023-03-27T00:42:58.040Z,5.20
2023-03-27T00:46:21.257Z,5.10
2023-03-27T00:49:26.978Z,5.10
2023-03-27T00:52:31.430Z,5.00
2023-03-27T00:55:36.276Z,5.00
2023-03-27T00:58:44.695Z,5.00
2023-03-27T01:01:47.160Z,5.00
2023-03-27T01:04:50.251Z,5.00
2023-03-27T01:08:00.887Z,5.00
2023-03-27T01:11:16.395Z,5.10
2023-03-27T01:14:42.130Z,5.00
2023-03-27T01:17:51.318Z,4.90
2023-03-27T01:21:18.714Z,4.80
2023-03-27T01:24:32.336Z,4.70
2023-03-27T01:27:58.426Z,4.60
2023-03-27T01:31:33.566Z,4.60
2023-03-27T01:35:03.348Z,4.50
2023-03-27T01:38:46.572Z,4.40
2023-03-27T01:42:11.902Z,4.30
2023-03-27T01:45:42.027Z,4.20
2023-03-27T01:48:59.952Z,4.00
2023-03-27T01:52:04.783Z,3.90
2023-03-27T01:55:13.871Z,3.80
2023-03-27T01:58:22.707Z,3.80
2023-03-27T02:01:31.036Z,3.70
2023-03-27T02:04:51.345Z,3.60
2023-03-27T02:07:59.562Z,3.50
2023-03-27T02:11:01.221Z,3.40
2023-03-27T02:14:08.909Z,3.40
2023-03-27T02:17:15.886Z,3.30
2023-03-27T02:20:17.813Z,3.30
2023-03-27T02:23:19.534Z,3.20
2023-03-27T02:26:21.169Z,3.10
2023-03-27T02:29:43.399Z,3.10
2023-03-27T02:32:49.145Z,3.00
2023-03-27T02:36:12.485Z,3.00
2023-03-27T02:39:18.714Z,3.00
2023-03-27T02:42:42.903Z,2.90
2023-03-27T02:46:06.289Z,2.90
2023-03-27T02:49:14.295Z,2.80
2023-03-27T02:52:26.632Z,2.80
2023-03-27T02:55:34.293Z,2.70
2023-03-27T02:58:45.464Z,2.70
2023-03-27T03:01:47.196Z,2.60
2023-03-27T03:04:58.116Z,2.70
2023-03-27T03:07:59.844Z,2.70
2023-03-27T03:11:07.316Z,2.60
2023-03-27T03:14:08.935Z,2.60
2023-03-27T03:17:12.120Z,2.50
2023-03-27T03:20:14.015Z,2.50
2023-03-27T03:23:15.923Z,2.50
2023-03-27T03:26:18.228Z,2.50
2023-03-27T03:29:19.958Z,2.40
2023-03-27T03:32:21.536Z,2.40
2023-03-27T03:35:24.724Z,2.40
2023-03-27T03:38:28.114Z,2.40
2023-03-27T03:41:29.703Z,2.40
2023-03-27T03:44:31.284Z,2.30
2023-03-27T03:47:32.957Z,2.30
2023-03-27T03:50:34.945Z,2.30
2023-03-27T03:53:36.534Z,2.30
2023-03-27T03:56:41.780Z,2.30
2023-03-27T03:59:43.415Z,2.20
2023-03-27T04:02:45.623Z,2.20
2023-03-27T04:05:47.684Z,2.20
2023-03-27T04:08:49.888Z,2.10
2023-03-27T04:11:51.491Z,2.10
2023-03-27T04:14:54.169Z,2.10
2023-03-27T04:17:57.582Z,2.10
2023-03-27T04:20:59.506Z,2.00
2023-03-27T04:24:02.559Z,2.00
2023-03-27T04:27:05.548Z,2.00
2023-03-27T04:30:13.988Z,2.00
2023-03-27T04:33:18.854Z,2.00
2023-03-27T04:36:20.771Z,2.00
2023-03-27T04:39:22.402Z,2.00
2023-03-27T04:42:24.099Z,2.00
2023-03-27T04:45:25.859Z,1.90
2023-03-27T04:48:27.537Z,1.90
2023-03-27T04:51:32.199Z,1.90
2023-03-27T04:54:34.655Z,1.90
2023-03-27T04:57:37.317Z,1.90
2023-03-27T05:00:40.253Z,1.90
2023-03-27T05:03:41.976Z,1.90
2023-03-27T05:06:44.292Z,1.90
2023-03-27T05:09:45.844Z,1.80
2023-03-27T05:12:49.088Z,1.80
2023-03-27T05:15:50.763Z,1.80
2023-03-27T05:18:52.380Z,1.80
2023-03-27T05:21:53.932Z,1.80
2023-03-27T05:24:55.483Z,1.80
2023-03-27T05:27:57.843Z,1.80
2023-03-27T05:30:59.823Z,1.80
2023-03-27T05:34:02.641Z,1.90
2023-03-27T05:37:05.650Z,1.90
2023-03-27T05:40:07.786Z,1.90
2023-03-27T05:43:09.626Z,1.90
2023-03-27T05:46:11.531Z,2.00
2023-03-27T05:49:13.113Z,2.00
2023-03-27T05:52:15.898Z,2.10
2023-03-27T05:55:17.557Z,2.20
2023-03-27T05:58:19.113Z,2.30
2023-03-27T06:01:20.812Z,2.30
2023-03-27T06:04:22.995Z,2.40
2023-03-27T06:07:25.906Z,2.50
2023-03-27T06:10:29.490Z,2.60
2023-03-27T06:13:31.096Z,2.60
2023-03-27T06:16:32.762Z,2.70
2023-03-27T06:19:34.407Z,2.80
2023-03-27T06:22:39.312Z,2.80
2023-03-27T06:25:41.182Z,2.90
2023-03-27T06:28:43.515Z,3.00
2023-03-27T06:31:45.317Z,3.10
2023-03-27T06:34:49.974Z,3.10
2023-03-27T06:37:52.183Z,3.10
2023-03-27T06:40:53.787Z,3.20
2023-03-27T06:43:55.701Z,3.40
2023-03-27T06:46:57.385Z,3.50
2023-03-27T06:49:58.956Z,3.50
2023-03-27T06:53:00.990Z,3.70
2023-03-27T06:56:02.643Z,3.70
2023-03-27T06:59:04.212Z,3.70
2023-03-27T07:02:06.528Z,3.80
2023-03-27T07:05:08.801Z,3.90
2023-03-27T07:08:23.540Z,3.90
2023-03-27T07:11:26.934Z,4.00
2023-03-27T07:14:28.496Z,4.00
2023-03-27T07:17:42.138Z,4.10
2023-03-27T07:20:50.458Z,4.20
2023-03-27T07:23:53.574Z,4.20
2023-03-27T07:26:55.148Z,4.30
2023-03-27T07:29:59.310Z,4.50
2023-03-27T07:33:01.670Z,4.50
2023-03-27T07:36:07.244Z,4.60
2023-03-27T07:39:09.407Z,4.60
2023-03-27T07:42:10.970Z,4.60
2023-03-27T07:45:13.570Z,4.60
2023-03-27T07:48:16.051Z,4.70
2023-03-27T07:51:17.874Z,4.80
2023-03-27T07:54:21.580Z,4.80
2023-03-27T07:57:23.261Z,4.90
2023-03-27T08:00:25.232Z,5.10
2023-03-27T08:03:28.179Z,5.20
2023-03-27T08:06:31.950Z,5.30
2023-03-27T08:09:33.573Z,5.40
2023-03-27T08:12:36.786Z,5.40
2023-03-27T08:15:38.716Z,5.50
2023-03-27T08:18:41.054Z,5.70
2023-03-27T08:21:43.021Z,5.80
2023-03-27T08:24:44.686Z,6.00
2023-03-27T08:27:46.619Z,6.40
2023-03-27T08:30:48.278Z,6.60
2023-03-27T08:33:49.872Z,6.60
2023-03-27T08:36:52.542Z,6.50
2023-03-27T08:39:58.751Z,6.30
2023-03-27T08:43:12.354Z,5.90
2023-03-27T08:46:20.707Z,5.80
2023-03-27T08:49:25.274Z,5.60
2023-03-27T08:52:30.591Z,5.90
2023-03-27T08:55:39.403Z,6.30
2023-03-27T08:58:42.217Z,6.70
2023-03-27T09:02:02.089Z,7.10
2023-03-27T09:05:19.284Z,7.40
2023-03-27T09:08:42.553Z,7.30
2023-03-27T09:12:06.526Z,7.10
2023-03-27T09:15:13.391Z,6.60
2023-03-27T09:18:34.411Z,6.40
2023-03-27T09:22:11.168Z,6.50
2023-03-27T09:25:34.428Z,6.60
2023-03-27T09:29:03.483Z,6.70
2023-03-27T09:32:13.459Z,6.90
2023-03-27T09:35:17.858Z,7.10
2023-03-27T09:38:28.239Z,7.10
2023-03-27T09:41:37.187Z,7.20
2023-03-27T09:44:42.312Z,7.30
2023-03-27T09:47:59.475Z,7.40
2023-03-27T09:51:02.355Z,7.40
2023-03-27T09:54:05.047Z,7.40
2023-03-27T09:57:11.451Z,7.10
2023-03-27T10:00:31.382Z,7.00
2023-03-27T10:03:54.090Z,7.30
2023-03-27T10:07:02.158Z,7.60
2023-03-27T10:10:13.960Z,8.00
2023-03-27T10:13:17.934Z,8.30
2023-03-27T10:16:22.287Z,8.50
2023-03-27T10:19:30.623Z,8.50
2023-03-27T10:22:36.166Z,8.40
2023-03-27T10:25:48.932Z,8.20
2023-03-27T10:28:54.364Z,7.90
2023-03-27T10:31:58.405Z,7.50
2023-03-27T10:35:00.014Z,6.60
2023-03-27T10:38:04.788Z,6.30
2023-03-27T10:41:17.420Z,6.00
2023-03-27T10:44:30.307Z,6.00
2023-03-27T10:47:33.621Z,5.90
2023-03-27T10:50:44.006Z,5.50
2023-03-27T10:53:54.725Z,5.20
2023-03-27T10:57:06.183Z,5.20
2023-03-27T11:00:18.730Z,5.20
2023-03-27T11:03:49.002Z,5.30
2023-03-27T11:06:54.284Z,5.50
2023-03-27T11:10:21.505Z,5.90
2023-03-27T11:13:30.682Z,6.10
2023-03-27T11:16:37.151Z,6.50
2023-03-27T11:19:53.800Z,6.70
2023-03-27T11:23:04.493Z,7.00
2023-03-27T11:26:10.969Z,7.30
2023-03-27T11:29:28.266Z,7.60
2023-03-27T11:32:40.553Z,7.70
2023-03-27T11:35:50.009Z,7.90
2023-03-27T11:39:06.478Z,8.10
2023-03-27T11:42:17.363Z,8.10
2023-03-27T11:45:27.203Z,8.20
2023-03-27T11:48:56.805Z,8.30
2023-03-27T11:52:26.928Z,8.50
2023-03-27T11:55:35.928Z,8.90
2023-03-27T11:58:56.490Z,9.10
2023-03-27T12:02:08.736Z,9.10
2023-03-27T12:05:58.694Z,8.50
2023-03-27T12:09:10.219Z,7.80
2023-03-27T12:12:31.415Z,7.30
2023-03-27T12:15:52.237Z,7.10
2023-03-27T12:19:27.445Z,6.70
2023-03-27T12:22:37.277Z,6.60
2023-03-27T12:26:04.939Z,6.60
2023-03-27T12:29:27.552Z,6.90
2023-03-27T12:32:58.266Z,7.40
2023-03-27T12:36:06.424Z,7.90
2023-03-27T12:39:21.011Z,8.00
2023-03-27T12:42:51.907Z,8.10
2023-03-27T12:46:23.954Z,8.20
2023-03-27T12:49:46.465Z,8.10
2023-03-27T12:52:51.774Z,8.60
2023-03-27T12:56:16.230Z,8.70
2023-03-27T12:59:25.068Z,8.40
2023-03-27T13:02:38.709Z,7.90
2023-03-27T13:06:02.024Z,7.20
2023-03-27T13:09:18.484Z,7.00
2023-03-27T13:12:59.393Z,6.80
2023-03-27T13:16:19.691Z,6.70
2023-03-27T13:19:27.405Z,6.80
2023-03-27T13:22:56.814Z,7.20
2023-03-27T13:26:29.086Z,7.70
2023-03-27T13:29:33.298Z,8.20
2023-03-27T13:32:40.053Z,8.50
2023-03-27T13:35:57.068Z,8.30
2023-03-27T13:39:06.159Z,8.20
2023-03-27T13:42:39.603Z,8.30
2023-03-27T13:45:53.791Z,8.30
2023-03-27T13:49:27.223Z,8.10
2023-03-27T13:52:37.646Z,8.20
2023-03-27T13:56:16.845Z,8.30
2023-03-27T13:59:38.499Z,8.50
2023-03-27T14:03:35.207Z,8.60
2023-03-27T14:07:04.190Z,8.70
2023-03-27T14:10:37.681Z,8.90
2023-03-27T14:14:04.689Z,9.10
2023-03-27T14:17:12.030Z,9.20
2023-03-27T14:20:21.924Z,9.30
2023-03-27T14:23:29.265Z,9.10
2023-03-27T14:26:33.750Z,9.10
2023-03-27T14:29:35.315Z,9.10
2023-03-27T14:32:37.075Z,9.00
2023-03-27T14:35:44.297Z,8.90
2023-03-27T14:38:46.324Z,8.70
2023-03-27T14:41:53.470Z,7.80
2023-03-27T14:45:35.493Z,6.80
2023-03-27T14:48:39.733Z,6.10
2023-03-27T14:51:47.461Z,5.80
2023-03-27T14:54:55.014Z,5.50
2023-03-27T14:58:10.842Z,5.30
2023-03-27T15:01:16.908Z,5.40
2023-03-27T15:04:19.379Z,5.90
2023-03-27T15:07:28.571Z,6.30
2023-03-27T15:10:31.766Z,6.80
2023-03-27T15:13:36.388Z,7.30
2023-03-27T15:16:39.034Z,7.50
2023-03-27T15:19:50.916Z,7.60
2023-03-27T15:23:02.459Z,7.60
2023-03-27T15:26:28.638Z,7.70
2023-03-27T15:30:09.401Z,7.50
2023-03-27T15:33:20.240Z,7.50
2023-03-27T15:36:27.796Z,7.40
2023-03-27T15:39:31.043Z,7.30
2023-03-27T15:42:46.119Z,7.20
2023-03-27T15:45:54.137Z,7.00
2023-03-27T15:48:56.728Z,7.00
2023-03-27T15:52:00.279Z,7.00
2023-03-27T15:55:03.920Z,7.00
2023-03-27T15:58:19.972Z,7.00
2023-03-27T16:01:27.301Z,7.00
2023-03-27T16:04:39.112Z,7.00
2023-03-27T16:07:44.998Z,7.00
2023-03-27T16:10:48.307Z,6.90
2023-03-27T16:13:56.047Z,6.90
2023-03-27T16:17:09.963Z,6.80
2023-03-27T16:20:12.646Z,6.70
2023-03-27T16:23:14.289Z,6.60
2023-03-27T16:26:18.905Z,6.60
2023-03-27T16:29:20.799Z,6.40
2023-03-27T16:32:22.549Z,6.30
2023-03-27T16:35:24.615Z,6.20
2023-03-27T16:38:26.338Z,6.20
2023-03-27T16:41:28.193Z,6.20
2023-03-27T16:44:29.759Z,6.40
2023-03-27T16:47:31.996Z,6.70
2023-03-27T16:50:33.669Z,7.30
2023-03-27T16:53:35.403Z,7.20
2023-03-27T16:56:37.126Z,6.90
2023-03-27T16:59:38.921Z,6.70
2023-03-27T17:02:41.409Z,6.50
2023-03-27T17:05:44.131Z,6.40
2023-03-27T17:08:46.187Z,6.30
2023-03-27T17:11:48.094Z,6.40
2023-03-27T17:14:49.725Z,6.30
2023-03-27T17:17:52.146Z,6.20
2023-03-27T17:20:53.933Z,6.30
2023-03-27T19:20:30.837Z,3.40
2023-03-27T19:23:32.722Z,3.40
2023-03-27T19:26:34.745Z,3.50
2023-03-27T19:29:36.722Z,3.50
2023-03-27T19:32:39.306Z,3.50
2023-03-27T19:35:41.371Z,3.60
2023-03-27T19:38:43.281Z,3.60
2023-03-27T19:41:45.707Z,3.80
2023-03-27T19:44:47.548Z,3.80
2023-03-27T19:47:49.410Z,3.90
2023-03-27T19:50:56.501Z,3.90
2023-03-27T19:53:58.629Z,4.00
2023-03-27T19:57:00.653Z,4.00
2023-03-27T20:00:02.309Z,4.00
2023-03-27T20:03:06.230Z,4.00
2023-03-27T20:06:12.278Z,4.00
2023-03-27T20:09:15.832Z,4.00
2023-03-27T20:12:19.545Z,4.00
2023-03-27T20:15:21.428Z,4.00
2023-03-27T20:18:23.066Z,3.90
2023-03-27T20:21:25.574Z,3.90
2023-03-27T20:24:28.690Z,3.80
2023-03-27T20:27:30.576Z,3.80
2023-03-27T20:30:36.508Z,3.60
2023-03-27T20:33:38.083Z,3.60
2023-03-27T20:36:39.783Z,3.60
2023-03-27T20:39:47.121Z,3.50
2023-03-27T20:42:54.173Z,3.40
2023-03-27T20:45:58.764Z,3.40
2023-03-27T20:49:03.373Z,3.30
2023-03-27T20:52:06.108Z,3.30
2023-03-27T20:55:09.531Z,3.30
2023-03-27T20:58:12.404Z,3.20
2023-03-27T21:01:14.724Z,3.20
2023-03-27T21:04:16.341Z,3.10
2023-03-27T21:07:17.916Z,3.10
2023-03-27T21:10:21.227Z,3.10
2023-03-27T21:13:22.918Z,3.00
2023-03-27T21:16:24.663Z,2.90
2023-03-27T21:19:26.994Z,2.90
2023-03-27T21:22:31.615Z,2.80
2023-03-27T21:25:34.435Z,2.70
2023-03-27T21:28:36.079Z,2.70
2023-03-27T21:31:39.238Z,2.70
2023-03-27T21:34:41.305Z,2.70
2023-03-27T21:37:42.941Z,2.60
2023-03-27T21:40:47.091Z,2.50
2023-03-27T21:43:48.707Z,2.60
2023-03-27T21:46:50.320Z,2.50
2023-03-27T21:49:51.941Z,2.40
2023-03-27T21:52:53.685Z,2.40
2023-03-27T21:55:56.511Z,2.30
2023-03-27T21:58:58.458Z,2.30
2023-03-27T22:02:00.181Z,2.20
2023-03-27T22:05:01.961Z,2.10
2023-03-27T22:08:04.455Z,2.10
2023-03-27T22:11:06.672Z,2.10
2023-03-27T22:14:08.331Z,2.00
2023-03-27T22:17:10.401Z,2.00
2023-03-27T22:20:12.387Z,1.90
2023-03-27T22:23:14.270Z,1.90
2023-03-27T22:26:16.721Z,1.90
2023-03-27T22:29:18.330Z,2.00
2023-03-27T22:32:20.726Z,2.00
2023-03-27T22:35:22.493Z,2.10
2023-03-27T22:38:24.374Z,2.10
2023-03-27T22:41:26.063Z,2.10
2023-03-27T22:44:31.052Z,2.10
2023-03-27T22:47:32.896Z,2.10
2023-03-27T22:50:34.613Z,2.10
2023-03-27T22:53:37.012Z,2.00
2023-03-27T22:56:38.599Z,2.00
2023-03-27T22:59:40.325Z,2.00
2023-03-27T23:02:42.049Z,1.90
2023-03-27T23:05:49.457Z,1.90
2023-03-27T23:08:51.636Z,1.80
2023-03-27T23:11:53.180Z,1.80
2023-03-27T23:14:54.778Z,1.80
2023-03-27T23:17:56.559Z,1.70
2023-03-27T23:21:00.864Z,1.70
2023-03-27T23:24:02.673Z,1.70
2023-03-27T23:27:04.889Z,1.70
2023-03-27T23:30:07.157Z,1.60
2023-03-27T23:33:10.715Z,1.60
2023-03-27T23:36:21.503Z,1.50
2023-03-27T23:39:23.117Z,1.40
2023-03-27T23:42:24.673Z,1.30
2023-03-27T23:45:26.348Z,1.20
2023-03-27T23:48:29.236Z,1.10
2023-03-27T23:51:30.858Z,1.00
2023-03-27T23:54:32.411Z,1.00
2023-03-27T23:57:33.963Z,1.00
